sensor_id;sensor_type;location;lat;lon;timestamp;pressure;altitude;pressure_sealevel;temperature;humidity
39275;BME280;24980;48.874;2.332;2022-11-03T00:01:50;101105.64;;;21.69;47.05
39275;BME280;24980;48.874;2.332;2022-11-03T00:04:20;101109.59;;;21.68;47.05
39275;BME280;24980;48.874;2.332;2022-11-03T00:06:51;101112.47;;;21.68;47.04
39275;BME280;24980;48.874;2.332;2022-11-03T00:09:21;101109.09;;;21.68;47.05
39275;BME280;24980;48.874;2.332;2022-11-03T00:11:51;101110.05;;;21.66;47.04
39275;BME280;24980;48.874;2.332;2022-11-03T00:14:21;101102.70;;;21.65;47.04
39275;BME280;24980;48.874;2.332;2022-11-03T00:16:51;101101.19;;;21.65;47.04
39275;BME280;24980;48.874;2.332;2022-11-03T00:19:21;101098.32;;;21.64;47.04
39275;BME280;24980;48.874;2.332;2022-11-03T00:21:52;101093.94;;;21.65;47.04
39275;BME280;24980;48.874;2.332;2022-11-03T00:24:25;101094.86;;;21.66;47.04
39275;BME280;24980;48.874;2.332;2022-11-03T00:26:53;101091.12;;;21.68;47.07
39275;BME280;24980;48.874;2.332;2022-11-03T00:29:23;101090.28;;;21.70;47.12
39275;BME280;24980;48.874;2.332;2022-11-03T00:31:53;101085.11;;;21.71;47.17
39275;BME280;24980;48.874;2.332;2022-11-03T00:34:24;101084.69;;;21.71;47.25
39275;BME280;24980;48.874;2.332;2022-11-03T00:36:54;101081.31;;;21.72;47.33
39275;BME280;24980;48.874;2.332;2022-11-03T00:39:24;101074.31;;;21.71;47.42
39275;BME280;24980;48.874;2.332;2022-11-03T00:41:54;101076.92;;;21.71;47.50
39275;BME280;24980;48.874;2.332;2022-11-03T00:44:24;101073.30;;;21.72;47.58
39275;BME280;24980;48.874;2.332;2022-11-03T00:46:55;101068.33;;;21.73;47.68
39275;BME280;24980;48.874;2.332;2022-11-03T00:49:24;101060.45;;;21.75;47.78
39275;BME280;24980;48.874;2.332;2022-11-03T00:51:55;101053.36;;;21.76;47.92
39275;BME280;24980;48.874;2.332;2022-11-03T00:54:25;101052.86;;;21.77;48.05
39275;BME280;24980;48.874;2.332;2022-11-03T00:56:55;101052.91;;;21.78;48.20
39275;BME280;24980;48.874;2.332;2022-11-03T00:59:25;101048.35;;;21.77;48.34
39275;BME280;24980;48.874;2.332;2022-11-03T01:01:55;101039.19;;;21.77;48.47
39275;BME280;24980;48.874;2.332;2022-11-03T01:04:26;101033.62;;;21.76;48.59
39275;BME280;24980;48.874;2.332;2022-11-03T01:07:00;101034.97;;;21.76;48.71
39275;BME280;24980;48.874;2.332;2022-11-03T01:12:04;101016.41;;;21.73;48.90
39275;BME280;24980;48.874;2.332;2022-11-03T01:14:42;101022.09;;;21.73;48.96
39275;BME280;24980;48.874;2.332;2022-11-03T01:17:04;101017.11;;;21.73;49.03
39275;BME280;24980;48.874;2.332;2022-11-03T01:19:30;101011.88;;;21.71;49.07
39275;BME280;24980;48.874;2.332;2022-11-03T01:21:58;101017.91;;;21.70;49.11
39275;BME280;24980;48.874;2.332;2022-11-03T01:24:28;101005.84;;;21.69;49.13
39275;BME280;24980;48.874;2.332;2022-11-03T01:26:58;101000.95;;;21.69;49.15
39275;BME280;24980;48.874;2.332;2022-11-03T01:29:28;100993.19;;;21.68;49.17
39275;BME280;24980;48.874;2.332;2022-11-03T01:31:58;100985.77;;;21.68;49.18
39275;BME280;24980;48.874;2.332;2022-11-03T01:34:29;100990.52;;;21.66;49.20
39275;BME280;24980;48.874;2.332;2022-11-03T01:36:59;100989.67;;;21.66;49.21
39275;BME280;24980;48.874;2.332;2022-11-03T01:39:29;100976.85;;;21.65;49.22
39275;BME280;24980;48.874;2.332;2022-11-03T01:41:59;100970.27;;;21.64;49.23
39275;BME280;24980;48.874;2.332;2022-11-03T01:44:35;100961.53;;;21.64;49.24
39275;BME280;24980;48.874;2.332;2022-11-03T01:47:18;100956.22;;;21.63;49.26
39275;BME280;24980;48.874;2.332;2022-11-03T01:52:30;100952.52;;;21.62;49.26
39275;BME280;24980;48.874;2.332;2022-11-03T01:54:33;100949.81;;;21.61;49.27
39275;BME280;24980;48.874;2.332;2022-11-03T01:57:04;100946.10;;;21.61;49.29
39275;BME280;24980;48.874;2.332;2022-11-03T01:59:32;100944.70;;;21.60;49.29
39275;BME280;24980;48.874;2.332;2022-11-03T02:02:02;100930.19;;;21.60;49.29
39275;BME280;24980;48.874;2.332;2022-11-03T02:04:33;100922.02;;;21.59;49.29
39275;BME280;24980;48.874;2.332;2022-11-03T02:07:30;100921.09;;;21.59;49.29
39275;BME280;24980;48.874;2.332;2022-11-03T02:09:33;100920.33;;;21.58;49.31
39275;BME280;24980;48.874;2.332;2022-11-03T02:12:04;100919.65;;;21.58;49.31
39275;BME280;24980;48.874;2.332;2022-11-03T02:17:09;100908.97;;;21.57;49.31
39275;BME280;24980;48.874;2.332;2022-11-03T02:22:36;100901.64;;;21.56;49.34
39275;BME280;24980;48.874;2.332;2022-11-03T02:24:55;100895.14;;;21.55;49.34
39275;BME280;24980;48.874;2.332;2022-11-03T02:27:06;100886.96;;;21.56;49.35
39275;BME280;24980;48.874;2.332;2022-11-03T02:29:36;100885.53;;;21.54;49.35
39275;BME280;24980;48.874;2.332;2022-11-03T02:32:12;100879.45;;;21.54;49.36
39275;BME280;24980;48.874;2.332;2022-11-03T02:37:19;100868.53;;;21.54;49.37
39275;BME280;24980;48.874;2.332;2022-11-03T02:39:44;100863.22;;;21.53;49.37
39275;BME280;24980;48.874;2.332;2022-11-03T02:42:10;100860.44;;;21.52;49.39
39275;BME280;24980;48.874;2.332;2022-11-03T02:44:40;100858.83;;;21.52;49.39
39275;BME280;24980;48.874;2.332;2022-11-03T02:47:13;100852.76;;;21.52;49.39
39275;BME280;24980;48.874;2.332;2022-11-03T02:49:51;100850.91;;;21.51;49.40
39275;BME280;24980;48.874;2.332;2022-11-03T02:52:39;100846.97;;;21.51;49.40
39275;BME280;24980;48.874;2.332;2022-11-03T02:54:44;100838.04;;;21.49;49.40
39275;BME280;24980;48.874;2.332;2022-11-03T02:57:20;100828.00;;;21.50;49.41
39275;BME280;24980;48.874;2.332;2022-11-03T02:59:57;100823.45;;;21.49;49.41
39275;BME280;24980;48.874;2.332;2022-11-03T03:02:20;100810.21;;;21.49;49.43
39275;BME280;24980;48.874;2.332;2022-11-03T03:04:49;100814.80;;;21.48;49.43
39275;BME280;24980;48.874;2.332;2022-11-03T03:07:19;100804.56;;;21.48;49.44
39275;BME280;24980;48.874;2.332;2022-11-03T03:09:49;100791.02;;;21.47;49.44
39275;BME280;24980;48.874;2.332;2022-11-03T03:12:17;100775.67;;;21.48;49.44
39275;BME280;24980;48.874;2.332;2022-11-03T03:14:45;100765.81;;;21.47;49.44
39275;BME280;24980;48.874;2.332;2022-11-03T03:17:25;100760.33;;;21.47;49.45
39275;BME280;24980;48.874;2.332;2022-11-03T03:20:13;100753.16;;;21.46;49.45
39275;BME280;24980;48.874;2.332;2022-11-03T03:27:21;100739.25;;;21.45;49.48
39275;BME280;24980;48.874;2.332;2022-11-03T03:29:58;100738.58;;;21.45;49.48
39275;BME280;24980;48.874;2.332;2022-11-03T03:32:24;100731.36;;;21.44;49.48
39275;BME280;24980;48.874;2.332;2022-11-03T03:34:52;100722.89;;;21.45;49.49
39275;BME280;24980;48.874;2.332;2022-11-03T03:37:23;100708.52;;;21.44;49.50
39275;BME280;24980;48.874;2.332;2022-11-03T03:39:54;100698.31;;;21.44;49.50
39275;BME280;24980;48.874;2.332;2022-11-03T03:42:25;100697.30;;;21.43;49.51
39275;BME280;24980;48.874;2.332;2022-11-03T03:44:55;100701.69;;;21.43;49.52
39275;BME280;24980;48.874;2.332;2022-11-03T03:47:31;100704.30;;;21.43;49.53
39275;BME280;24980;48.874;2.332;2022-11-03T03:49:55;100702.11;;;21.43;49.53
39275;BME280;24980;48.874;2.332;2022-11-03T03:52:25;100706.33;;;21.43;49.54
39275;BME280;24980;48.874;2.332;2022-11-03T03:55:00;100707.67;;;21.43;49.56
39275;BME280;24980;48.874;2.332;2022-11-03T03:57:27;100706.08;;;21.42;49.57
39275;BME280;24980;48.874;2.332;2022-11-03T03:59:57;100716.28;;;21.42;49.58
39275;BME280;24980;48.874;2.332;2022-11-03T04:02:27;100718.81;;;21.42;49.58
39275;BME280;24980;48.874;2.332;2022-11-03T04:04:57;100723.02;;;21.42;49.59
39275;BME280;24980;48.874;2.332;2022-11-03T04:07:27;100712.77;;;21.41;49.59
39275;BME280;24980;48.874;2.332;2022-11-03T04:09:57;100707.62;;;21.41;49.60
39275;BME280;24980;48.874;2.332;2022-11-03T04:12:27;100697.17;;;21.40;49.61
39275;BME280;24980;48.874;2.332;2022-11-03T04:14:57;100692.54;;;21.40;49.61
39275;BME280;24980;48.874;2.332;2022-11-03T04:17:28;100695.58;;;21.40;49.62
39275;BME280;24980;48.874;2.332;2022-11-03T04:19:58;100698.78;;;21.40;49.62
39275;BME280;24980;48.874;2.332;2022-11-03T04:22:31;100700.05;;;21.39;49.62
39275;BME280;24980;48.874;2.332;2022-11-03T04:25:08;100698.02;;;21.38;49.63
39275;BME280;24980;48.874;2.332;2022-11-03T04:27:34;100682.85;;;21.38;49.64
39275;BME280;24980;48.874;2.332;2022-11-03T04:30:15;100668.72;;;21.38;49.64
39275;BME280;24980;48.874;2.332;2022-11-03T04:32:31;100659.78;;;21.37;49.64
39275;BME280;24980;48.874;2.332;2022-11-03T04:37:32;100653.72;;;21.37;49.65
39275;BME280;24980;48.874;2.332;2022-11-03T04:40:09;100649.25;;;21.36;49.65
39275;BME280;24980;48.874;2.332;2022-11-03T04:42:33;100647.82;;;21.36;49.64
39275;BME280;24980;48.874;2.332;2022-11-03T04:47:35;100640.31;;;21.36;49.65
39275;BME280;24980;48.874;2.332;2022-11-03T04:50:19;100639.30;;;21.36;49.65
39275;BME280;24980;48.874;2.332;2022-11-03T04:55:10;100626.53;;;21.34;49.65
39275;BME280;24980;48.874;2.332;2022-11-03T04:57:36;100626.11;;;21.34;49.65
39275;BME280;24980;48.874;2.332;2022-11-03T05:00:15;100622.91;;;21.33;49.65
39275;BME280;24980;48.874;2.332;2022-11-03T05:02:36;100618.53;;;21.33;49.65
39275;BME280;24980;48.874;2.332;2022-11-03T05:05:17;100614.39;;;21.33;49.65
39275;BME280;24980;48.874;2.332;2022-11-03T05:07:37;100609.77;;;21.32;49.66
39275;BME280;24980;48.874;2.332;2022-11-03T05:10:12;100596.86;;;21.32;49.65
39275;BME280;24980;48.874;2.332;2022-11-03T05:12:37;100592.18;;;21.32;49.64
39275;BME280;24980;48.874;2.332;2022-11-03T05:17:38;100589.57;;;21.30;49.66
39275;BME280;24980;48.874;2.332;2022-11-03T05:20:23;100583.67;;;21.30;49.64
39275;BME280;24980;48.874;2.332;2022-11-03T05:22:39;100578.70;;;21.31;49.66
39275;BME280;24980;48.874;2.332;2022-11-03T05:25:41;100573.56;;;21.30;49.64
39275;BME280;24980;48.874;2.332;2022-11-03T05:27:40;100561.51;;;21.29;49.65
39275;BME280;24980;48.874;2.332;2022-11-03T05:30:12;100555.02;;;21.30;49.65
39275;BME280;24980;48.874;2.332;2022-11-03T05:32:40;100544.52;;;21.28;49.65
39275;BME280;24980;48.874;2.332;2022-11-03T05:35:20;100544.44;;;21.28;49.65
39275;BME280;24980;48.874;2.332;2022-11-03T05:37:41;100547.30;;;21.28;49.65
39275;BME280;24980;48.874;2.332;2022-11-03T05:40:20;100542.16;;;21.28;49.65
39275;BME280;24980;48.874;2.332;2022-11-03T05:42:43;100536.17;;;21.28;49.66
39275;BME280;24980;48.874;2.332;2022-11-03T05:45:21;100527.33;;;21.27;49.66
39275;BME280;24980;48.874;2.332;2022-11-03T05:50:24;100488.64;;;21.27;49.67
39275;BME280;24980;48.874;2.332;2022-11-03T05:52:45;100485.02;;;21.26;49.67
39275;BME280;24980;48.874;2.332;2022-11-03T05:55:23;100483.92;;;21.26;49.67
39275;BME280;24980;48.874;2.332;2022-11-03T05:57:45;100481.73;;;21.26;49.68
39275;BME280;24980;48.874;2.332;2022-11-03T06:00:27;100485.66;;;21.25;49.69
39275;BME280;24980;48.874;2.332;2022-11-03T06:02:47;100483.12;;;21.25;49.69
39275;BME280;24980;48.874;2.332;2022-11-03T06:05:20;100482.88;;;21.25;49.71
39275;BME280;24980;48.874;2.332;2022-11-03T06:07:47;100484.81;;;21.24;49.71
39275;BME280;24980;48.874;2.332;2022-11-03T06:10:26;100484.22;;;21.24;49.71
39275;BME280;24980;48.874;2.332;2022-11-03T06:12:47;100482.29;;;21.24;49.72
39275;BME280;24980;48.874;2.332;2022-11-03T06:15:31;100471.41;;;21.23;49.72
39275;BME280;24980;48.874;2.332;2022-11-03T06:18:00;100467.55;;;21.23;49.74
39275;BME280;24980;48.874;2.332;2022-11-03T06:20:20;100467.75;;;21.22;49.75
39275;BME280;24980;48.874;2.332;2022-11-03T06:22:50;100469.35;;;21.22;49.75
39275;BME280;24980;48.874;2.332;2022-11-03T06:25:30;100459.66;;;21.21;49.75
39275;BME280;24980;48.874;2.332;2022-11-03T06:27:49;100447.27;;;21.22;49.76
39275;BME280;24980;48.874;2.332;2022-11-03T06:30:28;100442.05;;;21.21;49.76
39275;BME280;24980;48.874;2.332;2022-11-03T06:32:51;100432.78;;;21.20;49.75
39275;BME280;24980;48.874;2.332;2022-11-03T06:35:21;100428.91;;;21.20;49.77
39275;BME280;24980;48.874;2.332;2022-11-03T06:37:51;100430.69;;;21.19;49.77
39275;BME280;24980;48.874;2.332;2022-11-03T06:40:32;100426.38;;;21.20;49.75
39275;BME280;24980;48.874;2.332;2022-11-03T06:42:53;100422.84;;;21.20;49.75
39275;BME280;24980;48.874;2.332;2022-11-03T06:45:24;100410.03;;;21.20;49.75
39275;BME280;24980;48.874;2.332;2022-11-03T06:47:53;100406.58;;;21.19;49.75
39275;BME280;24980;48.874;2.332;2022-11-03T06:50:27;100402.28;;;21.19;49.75
39275;BME280;24980;48.874;2.332;2022-11-03T06:52:55;100403.67;;;21.19;49.76
39275;BME280;24980;48.874;2.332;2022-11-03T06:55:29;100409.23;;;21.19;49.78
39275;BME280;24980;48.874;2.332;2022-11-03T06:58:06;100416.48;;;21.19;49.78
39275;BME280;24980;48.874;2.332;2022-11-03T07:00:28;100401.06;;;21.18;49.78
39275;BME280;24980;48.874;2.332;2022-11-03T07:03:06;100387.83;;;21.18;49.78
39275;BME280;24980;48.874;2.332;2022-11-03T07:05:29;100380.67;;;21.17;49.79
39275;BME280;24980;48.874;2.332;2022-11-03T07:08:19;100366.60;;;21.17;49.78
39275;BME280;24980;48.874;2.332;2022-11-03T07:10:32;100362.22;;;21.17;49.78
39275;BME280;24980;48.874;2.332;2022-11-03T07:13:02;100366.94;;;21.16;49.78
39275;BME280;24980;48.874;2.332;2022-11-03T07:15:36;100368.55;;;21.16;49.79
39275;BME280;24980;48.874;2.332;2022-11-03T07:18:00;100348.53;;;21.15;49.79
39275;BME280;24980;48.874;2.332;2022-11-03T07:20:29;100348.53;;;21.15;49.80
39275;BME280;24980;48.874;2.332;2022-11-03T07:23:00;100350.01;;;21.16;49.82
39275;BME280;24980;48.874;2.332;2022-11-03T07:25:30;100355.06;;;21.16;49.82
39275;BME280;24980;48.874;2.332;2022-11-03T07:28:01;100346.55;;;21.17;49.82
39275;BME280;24980;48.874;2.332;2022-11-03T07:30:34;100336.77;;;21.17;49.82
39275;BME280;24980;48.874;2.332;2022-11-03T07:33:10;100326.06;;;21.17;49.82
39275;BME280;24980;48.874;2.332;2022-11-03T07:35:40;100332.97;;;21.18;49.82
39275;BME280;24980;48.874;2.332;2022-11-03T07:38:14;100320.91;;;21.19;49.81
39275;BME280;24980;48.874;2.332;2022-11-03T07:40:32;100319.56;;;21.19;49.82
39275;BME280;24980;48.874;2.332;2022-11-03T07:43:13;100322.67;;;21.19;49.83
39275;BME280;24980;48.874;2.332;2022-11-03T07:45:38;100317.50;;;21.19;49.84
39275;BME280;24980;48.874;2.332;2022-11-03T07:48:23;100303.84;;;21.19;49.85
39275;BME280;24980;48.874;2.332;2022-11-03T07:50:34;100312.23;;;21.19;49.87
39275;BME280;24980;48.874;2.332;2022-11-03T07:53:09;100302.75;;;21.19;49.88
39275;BME280;24980;48.874;2.332;2022-11-03T07:55:34;100305.37;;;21.19;49.88
39275;BME280;24980;48.874;2.332;2022-11-03T07:58:24;100300.81;;;21.20;49.89
39275;BME280;24980;48.874;2.332;2022-11-03T08:00:35;100307.88;;;21.21;49.91
39275;BME280;24980;48.874;2.332;2022-11-03T08:03:15;100293.47;;;21.20;49.92
39275;BME280;24980;48.874;2.332;2022-11-03T08:05:36;100292.54;;;21.21;49.95
39275;BME280;24980;48.874;2.332;2022-11-03T08:08:06;100284.37;;;21.21;49.97
39275;BME280;24980;48.874;2.332;2022-11-03T08:10:36;100278.22;;;21.20;49.99
39275;BME280;24980;48.874;2.332;2022-11-03T08:13:06;100287.32;;;21.21;50.01
39275;BME280;24980;48.874;2.332;2022-11-03T08:15:36;100281.34;;;21.20;50.03
39275;BME280;24980;48.874;2.332;2022-11-03T08:18:06;100276.70;;;21.20;50.06
39275;BME280;24980;48.874;2.332;2022-11-03T08:20:37;100271.14;;;21.20;50.08
39275;BME280;24980;48.874;2.332;2022-11-03T08:23:12;100274.60;;;21.20;50.09
39275;BME280;24980;48.874;2.332;2022-11-03T08:25:37;100276.11;;;21.20;50.09
39275;BME280;24980;48.874;2.332;2022-11-03T08:28:07;100264.72;;;21.22;50.09
39275;BME280;24980;48.874;2.332;2022-11-03T08:30:37;100255.88;;;21.21;50.08
39275;BME280;24980;48.874;2.332;2022-11-03T08:33:08;100256.55;;;21.22;50.09
39275;BME280;24980;48.874;2.332;2022-11-03T08:35:38;100254.15;;;21.22;50.08
39275;BME280;24980;48.874;2.332;2022-11-03T08:38:08;100256.97;;;21.22;50.09
39275;BME280;24980;48.874;2.332;2022-11-03T08:40:38;100255.79;;;21.22;50.10
39275;BME280;24980;48.874;2.332;2022-11-03T08:43:08;100249.89;;;21.21;50.10
39275;BME280;24980;48.874;2.332;2022-11-03T08:45:41;100243.16;;;21.20;50.11
39275;BME280;24980;48.874;2.332;2022-11-03T08:48:09;100238.95;;;21.20;50.12
39275;BME280;24980;48.874;2.332;2022-11-03T08:50:39;100228.09;;;21.19;50.13
39275;BME280;24980;48.874;2.332;2022-11-03T08:53:09;100222.27;;;21.19;50.14
39275;BME280;24980;48.874;2.332;2022-11-03T08:55:40;100206.34;;;21.20;50.13
39275;BME280;24980;48.874;2.332;2022-11-03T08:58:10;100200.95;;;21.20;50.14
39275;BME280;24980;48.874;2.332;2022-11-03T09:00:40;100191.84;;;21.20;50.16
39275;BME280;24980;48.874;2.332;2022-11-03T09:03:11;100188.05;;;21.20;50.17
39275;BME280;24980;48.874;2.332;2022-11-03T09:05:41;100194.55;;;21.19;50.18
39275;BME280;24980;48.874;2.332;2022-11-03T09:08:11;100186.03;;;21.19;50.20
39275;BME280;24980;48.874;2.332;2022-11-03T09:10:41;100180.77;;;21.19;50.22
39275;BME280;24980;48.874;2.332;2022-11-03T09:13:11;100174.20;;;21.18;50.23
39275;BME280;24980;48.874;2.332;2022-11-03T09:15:41;100172.52;;;21.18;50.25
39275;BME280;24980;48.874;2.332;2022-11-03T09:18:12;100171.93;;;21.18;50.28
39275;BME280;24980;48.874;2.332;2022-11-03T09:20:42;100168.14;;;21.17;50.29
39275;BME280;24980;48.874;2.332;2022-11-03T09:23:12;100144.89;;;21.17;50.29
39275;BME280;24980;48.874;2.332;2022-11-03T09:25:42;100137.81;;;21.16;50.31
39275;BME280;24980;48.874;2.332;2022-11-03T09:28:12;100139.95;;;21.16;50.31
39275;BME280;24980;48.874;2.332;2022-11-03T09:30:51;100129.52;;;21.16;50.32
39275;BME280;24980;48.874;2.332;2022-11-03T09:33:13;100127.25;;;21.14;50.31
39275;BME280;24980;48.874;2.332;2022-11-03T09:35:43;100119.58;;;21.14;50.31
39275;BME280;24980;48.874;2.332;2022-11-03T09:38:13;100113.44;;;21.13;50.31
39275;BME280;24980;48.874;2.332;2022-11-03T09:40:43;100118.67;;;21.13;50.30
39275;BME280;24980;48.874;2.332;2022-11-03T09:43:14;100110.58;;;21.13;50.31
39275;BME280;24980;48.874;2.332;2022-11-03T09:45:44;100108.68;;;21.13;50.29
39275;BME280;24980;48.874;2.332;2022-11-03T09:48:15;100101.27;;;21.12;50.29
39275;BME280;24980;48.874;2.332;2022-11-03T09:50:50;100100.77;;;21.12;50.29
39275;BME280;24980;48.874;2.332;2022-11-03T09:53:15;100097.91;;;21.12;50.28
39275;BME280;24980;48.874;2.332;2022-11-03T09:55:46;100094.62;;;21.11;50.29
39275;BME280;24980;48.874;2.332;2022-11-03T09:58:17;100091.51;;;21.11;50.29
39275;BME280;24980;48.874;2.332;2022-11-03T10:00:47;100090.75;;;21.11;50.28
39275;BME280;24980;48.874;2.332;2022-11-03T10:03:17;100084.95;;;21.10;50.28
39275;BME280;24980;48.874;2.332;2022-11-03T10:05:48;100081.66;;;21.10;50.27
39275;BME280;24980;48.874;2.332;2022-11-03T10:08:26;100083.77;;;21.10;50.29
39275;BME280;24980;48.874;2.332;2022-11-03T10:10:53;100070.84;;;21.09;50.29
39275;BME280;24980;48.874;2.332;2022-11-03T10:13:27;100067.38;;;21.09;50.29
39275;BME280;24980;48.874;2.332;2022-11-03T10:15:49;100073.11;;;21.09;50.29
39275;BME280;24980;48.874;2.332;2022-11-03T10:18:20;100072.92;;;21.08;50.28
39275;BME280;24980;48.874;2.332;2022-11-03T10:20:50;100059.69;;;21.09;50.28
39275;BME280;24980;48.874;2.332;2022-11-03T10:23:20;100057.25;;;21.08;50.27
39275;BME280;24980;48.874;2.332;2022-11-03T10:25:50;100052.54;;;21.08;50.27
39275;BME280;24980;48.874;2.332;2022-11-03T10:28:22;100042.85;;;21.08;50.27
39275;BME280;24980;48.874;2.332;2022-11-03T10:31:02;100037.72;;;21.07;50.25
39275;BME280;24980;48.874;2.332;2022-11-03T10:33:32;100038.39;;;21.07;50.25
39275;BME280;24980;48.874;2.332;2022-11-03T10:35:52;100041.42;;;21.07;50.23
39275;BME280;24980;48.874;2.332;2022-11-03T10:38:26;100036.70;;;21.07;50.24
39275;BME280;24980;48.874;2.332;2022-11-03T10:40:54;100029.12;;;21.07;50.24
39275;BME280;24980;48.874;2.332;2022-11-03T10:43:24;100019.11;;;21.07;50.24
39275;BME280;24980;48.874;2.332;2022-11-03T10:46:12;100021.29;;;21.07;50.24
39275;BME280;24980;48.874;2.332;2022-11-03T10:48:25;100026.52;;;21.07;50.27
39275;BME280;24980;48.874;2.332;2022-11-03T10:50:55;100031.81;;;21.07;50.25
39275;BME280;24980;48.874;2.332;2022-11-03T10:53:25;100025.83;;;21.08;50.25
39275;BME280;24980;48.874;2.332;2022-11-03T10:55:55;100021.45;;;21.08;50.25
39275;BME280;24980;48.874;2.332;2022-11-03T10:58:25;100006.28;;;21.08;50.24
39275;BME280;24980;48.874;2.332;2022-11-03T11:00:56;100007.97;;;21.08;50.23
39275;BME280;24980;48.874;2.332;2022-11-03T11:03:26;100006.86;;;21.09;50.22
39275;BME280;24980;48.874;2.332;2022-11-03T11:05:59;100004.41;;;21.10;50.21
39275;BME280;24980;48.874;2.332;2022-11-03T11:08:36;100000.70;;;21.10;50.22
39275;BME280;24980;48.874;2.332;2022-11-03T11:11:04;99998.00;;;21.10;50.22
39275;BME280;24980;48.874;2.332;2022-11-03T11:13:27;99993.66;;;21.09;50.23
39275;BME280;24980;48.874;2.332;2022-11-03T11:15:59;99993.58;;;21.09;50.23
39275;BME280;24980;48.874;2.332;2022-11-03T11:20:59;99983.52;;;21.09;50.27
39275;BME280;24980;48.874;2.332;2022-11-03T11:28:30;99961.38;;;21.08;50.31
39275;BME280;24980;48.874;2.332;2022-11-03T11:31:01;99970.31;;;21.08;50.31
39275;BME280;24980;48.874;2.332;2022-11-03T11:33:31;99981.27;;;21.08;50.31
39275;BME280;24980;48.874;2.332;2022-11-03T11:36:05;99985.05;;;21.08;50.32
39275;BME280;24980;48.874;2.332;2022-11-03T11:38:52;99969.31;;;21.06;50.33
39275;BME280;24980;48.874;2.332;2022-11-03T11:41:05;99962.86;;;21.06;50.32
39275;BME280;24980;48.874;2.332;2022-11-03T11:43:40;99962.02;;;21.06;50.32
39275;BME280;24980;48.874;2.332;2022-11-03T11:46:31;99963.47;;;21.05;50.31
39275;BME280;24980;48.874;2.332;2022-11-03T11:48:36;99959.08;;;21.06;50.33
39275;BME280;24980;48.874;2.332;2022-11-03T11:51:08;99949.73;;;21.06;50.33
39275;BME280;24980;48.874;2.332;2022-11-03T11:53:42;99937.68;;;21.06;50.32
39275;BME280;24980;48.874;2.332;2022-11-03T11:56:08;99931.12;;;21.05;50.32
39275;BME280;24980;48.874;2.332;2022-11-03T11:58:40;99926.91;;;21.04;50.33
39275;BME280;24980;48.874;2.332;2022-11-03T12:03:40;99922.27;;;21.06;50.33
39275;BME280;24980;48.874;2.332;2022-11-03T12:06:06;99920.59;;;21.05;50.33
39275;BME280;24980;48.874;2.332;2022-11-03T12:08:36;99914.69;;;21.05;50.33
39275;BME280;24980;48.874;2.332;2022-11-03T12:11:09;99915.03;;;21.04;50.33
39275;BME280;24980;48.874;2.332;2022-11-03T12:13:48;99921.09;;;21.05;50.34
39275;BME280;24980;48.874;2.332;2022-11-03T12:16:07;99917.22;;;21.05;50.34
39275;BME280;24980;48.874;2.332;2022-11-03T12:18:42;99912.59;;;21.04;50.34
39275;BME280;24980;48.874;2.332;2022-11-03T12:21:12;99909.88;;;21.05;50.35
39275;BME280;24980;48.874;2.332;2022-11-03T12:23:41;99904.08;;;21.04;50.36
39275;BME280;24980;48.874;2.332;2022-11-03T12:28:38;99902.74;;;21.04;50.38
39275;BME280;24980;48.874;2.332;2022-11-03T12:31:09;99892.96;;;21.04;50.38
39275;BME280;24980;48.874;2.332;2022-11-03T12:33:39;99879.91;;;21.04;50.38
39275;BME280;24980;48.874;2.332;2022-11-03T12:36:09;99878.05;;;21.04;50.40
39275;BME280;24980;48.874;2.332;2022-11-03T12:38:39;99870.47;;;21.04;50.40
39275;BME280;24980;48.874;2.332;2022-11-03T12:41:09;99861.64;;;21.03;50.39
39275;BME280;24980;48.874;2.332;2022-11-03T12:43:44;99873.77;;;21.03;50.40
39275;BME280;24980;48.874;2.332;2022-11-03T12:46:10;99853.03;;;21.04;50.40
39275;BME280;24980;48.874;2.332;2022-11-03T12:48:40;99847.66;;;21.03;50.40
39275;BME280;24980;48.874;2.332;2022-11-03T12:51:11;99838.22;;;21.03;50.40
39275;BME280;24980;48.874;2.332;2022-11-03T12:53:40;99840.40;;;21.04;50.41
39275;BME280;24980;48.874;2.332;2022-11-03T12:56:11;99826.00;;;21.03;50.41
39275;BME280;24980;48.874;2.332;2022-11-03T12:58:41;99818.63;;;21.03;50.42
39275;BME280;24980;48.874;2.332;2022-11-03T13:01:11;99823.23;;;21.03;50.41
39275;BME280;24980;48.874;2.332;2022-11-03T13:03:41;99823.40;;;21.03;50.42
39275;BME280;24980;48.874;2.332;2022-11-03T13:06:11;99819.94;;;21.03;50.42
39275;BME280;24980;48.874;2.332;2022-11-03T13:08:41;99810.67;;;21.03;50.43
39275;BME280;24980;48.874;2.332;2022-11-03T13:11:11;99807.13;;;21.03;50.44
39275;BME280;24980;48.874;2.332;2022-11-03T13:16:12;99804.40;;;21.02;50.44
39275;BME280;24980;48.874;2.332;2022-11-03T13:18:42;99793.11;;;21.02;50.45
39275;BME280;24980;48.874;2.332;2022-11-03T13:21:12;99790.52;;;21.01;50.46
39275;BME280;24980;48.874;2.332;2022-11-03T13:23:43;99794.55;;;21.02;50.46
39275;BME280;24980;48.874;2.332;2022-11-03T13:26:13;99790.68;;;21.02;50.46
39275;BME280;24980;48.874;2.332;2022-11-03T13:28:43;99787.65;;;21.02;50.46
39275;BME280;24980;48.874;2.332;2022-11-03T13:31:13;99792.03;;;21.01;50.46
39275;BME280;24980;48.874;2.332;2022-11-03T13:33:43;99788.92;;;21.01;50.46
39275;BME280;24980;48.874;2.332;2022-11-03T13:36:13;99786.73;;;21.01;50.46
39275;BME280;24980;48.874;2.332;2022-11-03T13:38:43;99784.72;;;21.00;50.46
39275;BME280;24980;48.874;2.332;2022-11-03T13:41:13;99783.53;;;21.01;50.45
39275;BME280;24980;48.874;2.332;2022-11-03T13:43:43;99784.12;;;21.01;50.46
39275;BME280;24980;48.874;2.332;2022-11-03T13:46:14;99798.78;;;21.01;50.46
39275;BME280;24980;48.874;2.332;2022-11-03T13:48:49;99785.64;;;21.01;50.46
39275;BME280;24980;48.874;2.332;2022-11-03T13:51:14;99781.95;;;21.00;50.46
39275;BME280;24980;48.874;2.332;2022-11-03T13:53:45;99791.03;;;21.01;50.46